sensor_id;sensor_type;location;lat;lon;timestamp;pressure;altitude;pressure_sealevel;temperature;humidity
7774;BME280;3931;42.260;23.116;2022-08-19T00:00:56;95257.34;;;31.56;46.99
7774;BME280;3931;42.260;23.116;2022-08-19T00:03:22;95257.53;;;31.18;48.01
7774;BME280;3931;42.260;23.116;2022-08-19T00:05:48;95251.53;;;30.99;47.98
7774;BME280;3931;42.260;23.116;2022-08-19T00:08:15;95242.75;;;31.05;47.76
7774;BME280;3931;42.260;23.116;2022-08-19T00:10:41;95244.69;;;31.02;48.12
7774;BME280;3931;42.260;23.116;2022-08-19T00:13:07;95246.78;;;30.39;49.29
7774;BME280;3931;42.260;23.116;2022-08-19T00:15:33;95248.88;;;30.23;50.22
7774;BME280;3931;42.260;23.116;2022-08-19T00:17:59;95254.03;;;30.95;48.53
7774;BME280;3931;42.260;23.116;2022-08-19T00:20:25;95266.06;;;30.86;48.54
7774;BME280;3931;42.260;23.116;2022-08-19T00:22:52;95261.47;;;30.83;47.83
7774;BME280;3931;42.260;23.116;2022-08-19T00:25:19;95246.38;;;30.27;48.31
7774;BME280;3931;42.260;23.116;2022-08-19T00:27:45;95243.03;;;30.76;47.93
7774;BME280;3931;42.260;23.116;2022-08-19T00:30:12;95248.88;;;31.33;47.12
7774;BME280;3931;42.260;23.116;2022-08-19T00:32:38;95249.91;;;31.21;46.60
7774;BME280;3931;42.260;23.116;2022-08-19T00:35:06;95249.56;;;30.62;47.59
7774;BME280;3931;42.260;23.116;2022-08-19T00:37:32;95262.25;;;30.76;47.72
7774;BME280;3931;42.260;23.116;2022-08-19T00:40:00;95263.41;;;30.88;47.70
7774;BME280;3931;42.260;23.116;2022-08-19T00:42:28;95253.50;;;30.74;47.59
7774;BME280;3931;42.260;23.116;2022-08-19T00:44:54;95241.84;;;30.17;48.73
7774;BME280;3931;42.260;23.116;2022-08-19T00:47:20;95255.56;;;30.03;49.54
7774;BME280;3931;42.260;23.116;2022-08-19T00:49:48;95244.03;;;30.64;48.20
7774;BME280;3931;42.260;23.116;2022-08-19T00:52:21;95252.97;;;30.68;48.32
7774;BME280;3931;42.260;23.116;2022-08-19T00:54:48;95249.28;;;30.12;48.84
7774;BME280;3931;42.260;23.116;2022-08-19T00:57:17;95250.22;;;30.07;49.04
7774;BME280;3931;42.260;23.116;2022-08-19T00:59:47;95241.81;;;29.34;50.06
7774;BME280;3931;42.260;23.116;2022-08-19T01:02:18;95250.25;;;29.92;49.80
7774;BME280;3931;42.260;23.116;2022-08-19T01:04:44;95241.13;;;29.86;49.33
7774;BME280;3931;42.260;23.116;2022-08-19T01:07:10;95241.88;;;29.79;49.66
7774;BME280;3931;42.260;23.116;2022-08-19T01:09:36;95240.28;;;30.39;48.67
7774;BME280;3931;42.260;23.116;2022-08-19T01:12:03;95232.31;;;29.69;49.69
7774;BME280;3931;42.260;23.116;2022-08-19T01:14:30;95224.47;;;29.24;50.99
7774;BME280;3931;42.260;23.116;2022-08-19T01:16:57;95215.34;;;28.60;53.07
7774;BME280;3931;42.260;23.116;2022-08-19T01:19:28;95214.28;;;28.78;52.72
7774;BME280;3931;42.260;23.116;2022-08-19T01:21:59;95221.53;;;28.94;51.81
7774;BME280;3931;42.260;23.116;2022-08-19T01:24:27;95196.63;;;28.08;54.58
7774;BME280;3931;42.260;23.116;2022-08-19T01:26:53;95198.13;;;28.01;55.31
7774;BME280;3931;42.260;23.116;2022-08-19T01:29:20;95215.63;;;28.84;53.25
7774;BME280;3931;42.260;23.116;2022-08-19T01:31:46;95220.84;;;28.58;53.64
7774;BME280;3931;42.260;23.116;2022-08-19T01:34:12;95231.50;;;28.65;52.68
7774;BME280;3931;42.260;23.116;2022-08-19T01:36:41;95222.50;;;28.17;54.40
7774;BME280;3931;42.260;23.116;2022-08-19T01:39:11;95222.44;;;28.46;54.52
7774;BME280;3931;42.260;23.116;2022-08-19T01:41:39;95223.53;;;28.35;54.77
7774;BME280;3931;42.260;23.116;2022-08-19T01:44:07;95231.56;;;28.44;54.19
7774;BME280;3931;42.260;23.116;2022-08-19T01:46:34;95240.63;;;28.63;53.66
7774;BME280;3931;42.260;23.116;2022-08-19T01:49:02;95249.88;;;29.07;53.70
7774;BME280;3931;42.260;23.116;2022-08-19T01:51:29;95250.22;;;30.00;50.68
7774;BME280;3931;42.260;23.116;2022-08-19T01:53:56;95260.28;;;30.39;49.29
7774;BME280;3931;42.260;23.116;2022-08-19T01:56:22;95265.59;;;30.27;49.01
7774;BME280;3931;42.260;23.116;2022-08-19T01:58:52;95257.03;;;29.51;50.63
7774;BME280;3931;42.260;23.116;2022-08-19T02:01:19;95256.66;;;29.55;50.63
7774;BME280;3931;42.260;23.116;2022-08-19T02:03:45;95255.34;;;30.24;49.91
7774;BME280;3931;42.260;23.116;2022-08-19T02:06:12;95252.13;;;30.12;48.99
7774;BME280;3931;42.260;23.116;2022-08-19T02:08:39;95247.97;;;29.83;50.22
7774;BME280;3931;42.260;23.116;2022-08-19T02:11:06;95252.28;;;29.39;51.54
7774;BME280;3931;42.260;23.116;2022-08-19T02:13:33;95230.38;;;28.32;54.21
7774;BME280;3931;42.260;23.116;2022-08-19T02:16:00;95209.63;;;28.24;55.13
7774;BME280;3931;42.260;23.116;2022-08-19T02:18:26;95208.97;;;28.74;54.11
7774;BME280;3931;42.260;23.116;2022-08-19T02:20:53;95214.69;;;28.46;54.88
7774;BME280;3931;42.260;23.116;2022-08-19T02:23:19;95192.09;;;28.05;56.96
7774;BME280;3931;42.260;23.116;2022-08-19T02:25:47;95181.63;;;27.79;58.06
7774;BME280;3931;42.260;23.116;2022-08-19T02:28:14;95169.91;;;27.55;59.39
7774;BME280;3931;42.260;23.116;2022-08-19T02:30:41;95194.81;;;28.18;57.08
7774;BME280;3931;42.260;23.116;2022-08-19T02:33:08;95202.13;;;28.34;56.52
7774;BME280;3931;42.260;23.116;2022-08-19T02:35:34;95228.94;;;28.97;54.33
7774;BME280;3931;42.260;23.116;2022-08-19T02:38:01;95232.97;;;29.09;53.40
7774;BME280;3931;42.260;23.116;2022-08-19T02:40:48;95231.47;;;29.16;53.38
7774;BME280;3931;42.260;23.116;2022-08-19T02:43:15;95232.69;;;29.28;52.84
7774;BME280;3931;42.260;23.116;2022-08-19T02:45:41;95239.34;;;29.30;53.05
7774;BME280;3931;42.260;23.116;2022-08-19T02:48:08;95215.66;;;29.00;53.86
7774;BME280;3931;42.260;23.116;2022-08-19T02:50:37;95224.41;;;29.02;53.42
7774;BME280;3931;42.260;23.116;2022-08-19T02:53:03;95225.81;;;29.31;52.97
7774;BME280;3931;42.260;23.116;2022-08-19T02:55:29;95228.63;;;29.16;52.80
7774;BME280;3931;42.260;23.116;2022-08-19T02:57:55;95227.13;;;28.64;54.09
7774;BME280;3931;42.260;23.116;2022-08-19T03:00:22;95225.66;;;28.78;54.30
7774;BME280;3931;42.260;23.116;2022-08-19T03:02:49;95227.31;;;28.58;54.68
7774;BME280;3931;42.260;23.116;2022-08-19T03:05:16;95225.53;;;28.48;55.58
7774;BME280;3931;42.260;23.116;2022-08-19T03:07:42;95236.16;;;28.91;54.09
7774;BME280;3931;42.260;23.116;2022-08-19T03:10:08;95231.69;;;29.18;53.03
7774;BME280;3931;42.260;23.116;2022-08-19T03:12:36;95240.22;;;29.10;52.93
7774;BME280;3931;42.260;23.116;2022-08-19T03:15:03;95246.66;;;29.03;52.93
7774;BME280;3931;42.260;23.116;2022-08-19T03:17:30;95256.44;;;29.38;52.25
7774;BME280;3931;42.260;23.116;2022-08-19T03:19:56;95257.75;;;29.29;52.24
7774;BME280;3931;42.260;23.116;2022-08-19T03:22:23;95253.03;;;29.39;52.30
7774;BME280;3931;42.260;23.116;2022-08-19T03:24:49;95255.59;;;29.07;52.24
7774;BME280;3931;42.260;23.116;2022-08-19T03:27:15;95256.72;;;29.12;52.30
7774;BME280;3931;42.260;23.116;2022-08-19T03:29:43;95259.47;;;29.25;51.93
7774;BME280;3931;42.260;23.116;2022-08-19T03:32:09;95257.00;;;29.29;52.19
7774;BME280;3931;42.260;23.116;2022-08-19T03:34:36;95247.56;;;28.98;52.78
7774;BME280;3931;42.260;23.116;2022-08-19T03:37:05;95250.13;;;29.24;52.60
7774;BME280;3931;42.260;23.116;2022-08-19T03:39:32;95251.47;;;29.23;52.40
7774;BME280;3931;42.260;23.116;2022-08-19T03:41:58;95267.28;;;29.39;51.98
7774;BME280;3931;42.260;23.116;2022-08-19T03:44:28;95269.56;;;29.48;51.66
7774;BME280;3931;42.260;23.116;2022-08-19T03:46:57;95273.00;;;29.39;51.89
7774;BME280;3931;42.260;23.116;2022-08-19T03:49:24;95283.63;;;29.46;51.17
7774;BME280;3931;42.260;23.116;2022-08-19T03:51:53;95280.09;;;29.10;51.86
7774;BME280;3931;42.260;23.116;2022-08-19T03:54:21;95281.13;;;29.28;51.38
7774;BME280;3931;42.260;23.116;2022-08-19T03:56:51;95284.47;;;29.04;52.10
7774;BME280;3931;42.260;23.116;2022-08-19T03:59:19;95279.97;;;28.72;52.85
7774;BME280;3931;42.260;23.116;2022-08-19T04:01:46;95286.16;;;29.07;52.14
7774;BME280;3931;42.260;23.116;2022-08-19T04:04:12;95289.16;;;29.37;51.23
7774;BME280;3931;42.260;23.116;2022-08-19T04:06:38;95288.19;;;29.42;51.71
7774;BME280;3931;42.260;23.116;2022-08-19T04:09:07;95278.91;;;28.98;52.42
7774;BME280;3931;42.260;23.116;2022-08-19T04:11:37;95276.63;;;28.97;52.16
7774;BME280;3931;42.260;23.116;2022-08-19T04:14:08;95287.66;;;29.00;51.85
7774;BME280;3931;42.260;23.116;2022-08-19T04:16:34;95276.22;;;28.85;52.90
7774;BME280;3931;42.260;23.116;2022-08-19T04:19:02;95273.25;;;28.62;53.40
7774;BME280;3931;42.260;23.116;2022-08-19T04:21:28;95275.41;;;28.41;54.10
7774;BME280;3931;42.260;23.116;2022-08-19T04:23:55;95277.06;;;29.16;52.53
7774;BME280;3931;42.260;23.116;2022-08-19T04:26:24;95289.19;;;29.01;52.74
7774;BME280;3931;42.260;23.116;2022-08-19T04:28:50;95293.66;;;29.25;52.07
7774;BME280;3931;42.260;23.116;2022-08-19T04:31:19;95298.69;;;29.54;51.41
7774;BME280;3931;42.260;23.116;2022-08-19T04:33:46;95305.72;;;29.69;51.28
7774;BME280;3931;42.260;23.116;2022-08-19T04:36:15;95307.56;;;29.36;52.14
7774;BME280;3931;42.260;23.116;2022-08-19T04:38:42;95313.47;;;29.53;51.53
7774;BME280;3931;42.260;23.116;2022-08-19T04:41:08;95310.69;;;29.68;51.98
7774;BME280;3931;42.260;23.116;2022-08-19T04:43:52;95319.53;;;29.42;52.02
7774;BME280;3931;42.260;23.116;2022-08-19T04:46:19;95316.75;;;29.57;51.68
7774;BME280;3931;42.260;23.116;2022-08-19T04:48:45;95314.28;;;29.61;52.04
7774;BME280;3931;42.260;23.116;2022-08-19T04:51:12;95326.44;;;29.62;50.94
7774;BME280;3931;42.260;23.116;2022-08-19T04:53:40;95322.63;;;29.67;51.28
7774;BME280;3931;42.260;23.116;2022-08-19T04:56:09;95309.63;;;28.84;53.10
7774;BME280;3931;42.260;23.116;2022-08-19T04:58:37;95292.09;;;28.45;55.14
7774;BME280;3931;42.260;23.116;2022-08-19T05:01:04;95316.78;;;29.14;53.03
7774;BME280;3931;42.260;23.116;2022-08-19T05:03:31;95311.75;;;29.35;52.58
7774;BME280;3931;42.260;23.116;2022-08-19T05:05:59;95313.66;;;29.40;52.70
7774;BME280;3931;42.260;23.116;2022-08-19T05:08:29;95316.41;;;29.76;51.94
7774;BME280;3931;42.260;23.116;2022-08-19T05:10:55;95321.56;;;30.07;51.60
7774;BME280;3931;42.260;23.116;2022-08-19T05:13:22;95318.72;;;29.77;52.04
7774;BME280;3931;42.260;23.116;2022-08-19T05:15:53;95318.91;;;30.02;51.71
7774;BME280;3931;42.260;23.116;2022-08-19T05:18:20;95321.38;;;30.05;51.60
7774;BME280;3931;42.260;23.116;2022-08-19T05:21:07;95315.47;;;30.56;50.61
7774;BME280;3931;42.260;23.116;2022-08-19T05:23:51;95314.13;;;30.50;51.16
7774;BME280;3931;42.260;23.116;2022-08-19T05:26:17;95323.06;;;30.61;50.46
7774;BME280;3931;42.260;23.116;2022-08-19T05:28:43;95323.19;;;30.86;49.85
7774;BME280;3931;42.260;23.116;2022-08-19T05:31:09;95321.34;;;30.66;50.81
7774;BME280;3931;42.260;23.116;2022-08-19T05:33:35;95313.59;;;30.44;50.31
7774;BME280;3931;42.260;23.116;2022-08-19T05:36:02;95320.22;;;30.69;49.93
7774;BME280;3931;42.260;23.116;2022-08-19T05:38:30;95308.47;;;30.42;50.49
7774;BME280;3931;42.260;23.116;2022-08-19T05:40:56;95313.00;;;30.53;50.18
7774;BME280;3931;42.260;23.116;2022-08-19T05:43:22;95304.63;;;30.24;51.26
7774;BME280;3931;42.260;23.116;2022-08-19T05:45:48;95320.41;;;30.56;50.80
7774;BME280;3931;42.260;23.116;2022-08-19T05:48:16;95313.78;;;30.38;51.25
7774;BME280;3931;42.260;23.116;2022-08-19T05:50:46;95309.00;;;30.25;51.70
7774;BME280;3931;42.260;23.116;2022-08-19T05:53:15;95292.84;;;30.13;52.15
7774;BME280;3931;42.260;23.116;2022-08-19T05:55:42;95304.06;;;30.34;51.20
7774;BME280;3931;42.260;23.116;2022-08-19T05:58:08;95312.78;;;30.58;51.21
7774;BME280;3931;42.260;23.116;2022-08-19T06:00:35;95305.41;;;30.10;52.35
7774;BME280;3931;42.260;23.116;2022-08-19T06:03:01;95315.22;;;30.69;51.04
7774;BME280;3931;42.260;23.116;2022-08-19T06:05:28;95309.75;;;30.64;51.42
7774;BME280;3931;42.260;23.116;2022-08-19T06:07:54;95314.50;;;30.69;51.65
7774;BME280;3931;42.260;23.116;2022-08-19T06:10:20;95315.13;;;30.37;50.43
7774;BME280;3931;42.260;23.116;2022-08-19T06:12:48;95316.78;;;30.63;50.72
7774;BME280;3931;42.260;23.116;2022-08-19T06:15:14;95318.75;;;31.15;49.36
7774;BME280;3931;42.260;23.116;2022-08-19T06:17:41;95326.19;;;31.58;48.25
7774;BME280;3931;42.260;23.116;2022-08-19T06:20:11;95325.47;;;31.50;48.19
7774;BME280;3931;42.260;23.116;2022-08-19T06:22:39;95323.97;;;31.41;48.51
7774;BME280;3931;42.260;23.116;2022-08-19T06:25:06;95325.22;;;31.88;47.60
7774;BME280;3931;42.260;23.116;2022-08-19T06:27:34;95329.97;;;31.60;47.51
7774;BME280;3931;42.260;23.116;2022-08-19T06:30:02;95321.09;;;32.06;47.16
7774;BME280;3931;42.260;23.116;2022-08-19T06:32:28;95329.00;;;31.98;47.51
7774;BME280;3931;42.260;23.116;2022-08-19T06:34:55;95318.19;;;32.38;46.63
7774;BME280;3931;42.260;23.116;2022-08-19T06:37:22;95325.56;;;32.41;46.36
7774;BME280;3931;42.260;23.116;2022-08-19T06:39:48;95320.78;;;32.44;46.48
7774;BME280;3931;42.260;23.116;2022-08-19T06:42:15;95317.59;;;33.16;44.98
7774;BME280;3931;42.260;23.116;2022-08-19T06:44:46;95307.81;;;33.01;45.37
7774;BME280;3931;42.260;23.116;2022-08-19T06:47:17;95309.66;;;33.50;44.32
7774;BME280;3931;42.260;23.116;2022-08-19T06:49:43;95310.97;;;33.40;44.29
7774;BME280;3931;42.260;23.116;2022-08-19T06:52:09;95309.75;;;33.60;43.78
7774;BME280;3931;42.260;23.116;2022-08-19T06:54:37;95309.13;;;33.52;43.31
7774;BME280;3931;42.260;23.116;2022-08-19T06:57:05;95318.34;;;34.49;42.62
7774;BME280;3931;42.260;23.116;2022-08-19T06:59:32;95318.84;;;33.22;44.21
7774;BME280;3931;42.260;23.116;2022-08-19T07:02:04;95312.91;;;33.54;44.27
7774;BME280;3931;42.260;23.116;2022-08-19T07:04:33;95317.72;;;33.52;43.85
7774;BME280;3931;42.260;23.116;2022-08-19T07:07:02;95312.94;;;32.86;45.11
7774;BME280;3931;42.260;23.116;2022-08-19T07:09:31;95309.50;;;34.28;43.24
7774;BME280;3931;42.260;23.116;2022-08-19T07:11:57;95318.34;;;34.04;43.17
7774;BME280;3931;42.260;23.116;2022-08-19T07:14:25;95309.34;;;33.02;44.44
7774;BME280;3931;42.260;23.116;2022-08-19T07:16:54;95318.22;;;33.41;44.39
7774;BME280;3931;42.260;23.116;2022-08-19T07:19:22;95326.44;;;33.71;43.83
7774;BME280;3931;42.260;23.116;2022-08-19T07:21:51;95320.66;;;33.44;43.24
7774;BME280;3931;42.260;23.116;2022-08-19T07:24:18;95320.94;;;33.39;44.00
7774;BME280;3931;42.260;23.116;2022-08-19T07:26:45;95316.16;;;33.51;43.47
7774;BME280;3931;42.260;23.116;2022-08-19T07:29:12;95312.66;;;34.23;42.26
7774;BME280;3931;42.260;23.116;2022-08-19T07:31:38;95313.56;;;34.71;42.35
7774;BME280;3931;42.260;23.116;2022-08-19T07:34:06;95306.69;;;34.47;41.97
7774;BME280;3931;42.260;23.116;2022-08-19T07:36:33;95312.13;;;34.43;42.15
7774;BME280;3931;42.260;23.116;2022-08-19T07:39:04;95315.13;;;35.58;40.39
7774;BME280;3931;42.260;23.116;2022-08-19T07:41:30;95304.38;;;35.11;41.33
7774;BME280;3931;42.260;23.116;2022-08-19T07:43:57;95316.66;;;35.31;41.20
7774;BME280;3931;42.260;23.116;2022-08-19T07:46:24;95314.22;;;35.46;40.80
7774;BME280;3931;42.260;23.116;2022-08-19T07:48:51;95308.88;;;34.76;40.67
7774;BME280;3931;42.260;23.116;2022-08-19T07:51:20;95313.78;;;35.11;40.75
7774;BME280;3931;42.260;23.116;2022-08-19T07:53:46;95317.75;;;35.95;39.39
7774;BME280;3931;42.260;23.116;2022-08-19T07:56:14;95317.75;;;36.44;38.77
7774;BME280;3931;42.260;23.116;2022-08-19T07:58:43;95311.41;;;35.96;39.00
7774;BME280;3931;42.260;23.116;2022-08-19T08:01:10;95323.25;;;35.71;39.71
7774;BME280;3931;42.260;23.116;2022-08-19T08:03:37;95315.09;;;36.58;38.99
7774;BME280;3931;42.260;23.116;2022-08-19T08:06:22;95315.59;;;36.45;38.75
7774;BME280;3931;42.260;23.116;2022-08-19T08:09:07;95304.53;;;36.51;38.34
7774;BME280;3931;42.260;23.116;2022-08-19T08:11:37;95310.19;;;37.12;38.12
7774;BME280;3931;42.260;23.116;2022-08-19T08:14:03;95291.91;;;37.19;38.30
7774;BME280;3931;42.260;23.116;2022-08-19T08:16:30;95299.72;;;37.61;38.36
7774;BME280;3931;42.260;23.116;2022-08-19T08:18:57;95295.81;;;37.45;37.35
7774;BME280;3931;42.260;23.116;2022-08-19T08:21:23;95290.13;;;37.14;37.82
7774;BME280;3931;42.260;23.116;2022-08-19T08:23:49;95298.06;;;37.25;37.61
7774;BME280;3931;42.260;23.116;2022-08-19T08:26:17;95293.56;;;36.19;38.43
7774;BME280;3931;42.260;23.116;2022-08-19T08:28:43;95283.19;;;37.08;37.55
7774;BME280;3931;42.260;23.116;2022-08-19T08:31:10;95282.03;;;36.80;37.48
7774;BME280;3931;42.260;23.116;2022-08-19T08:33:36;95284.66;;;37.51;36.32
7774;BME280;3931;42.260;23.116;2022-08-19T08:36:02;95280.69;;;37.79;36.20
7774;BME280;3931;42.260;23.116;2022-08-19T08:38:30;95282.78;;;37.56;37.24
7774;BME280;3931;42.260;23.116;2022-08-19T08:41:01;95275.03;;;37.70;37.28
7774;BME280;3931;42.260;23.116;2022-08-19T08:43:34;95275.50;;;38.34;36.25
7774;BME280;3931;42.260;23.116;2022-08-19T08:46:06;95269.22;;;38.14;35.78
7774;BME280;3931;42.260;23.116;2022-08-19T08:48:40;95263.44;;;38.26;36.01
7774;BME280;3931;42.260;23.116;2022-08-19T08:51:14;95260.97;;;37.76;36.65
7774;BME280;3931;42.260;23.116;2022-08-19T08:53:44;95262.19;;;38.06;36.21
7774;BME280;3931;42.260;23.116;2022-08-19T08:56:11;95256.03;;;37.22;37.14
7774;BME280;3931;42.260;23.116;2022-08-19T08:58:46;95250.53;;;37.71;36.92
7774;BME280;3931;42.260;23.116;2022-08-19T09:01:14;95250.19;;;38.57;36.45
7774;BME280;3931;42.260;23.116;2022-08-19T09:03:42;95252.09;;;38.53;35.97
7774;BME280;3931;42.260;23.116;2022-08-19T09:06:14;95247.47;;;39.08;35.57
7774;BME280;3931;42.260;23.116;2022-08-19T09:08:48;95251.75;;;38.35;36.70
7774;BME280;3931;42.260;23.116;2022-08-19T09:11:19;95249.47;;;38.11;36.47
7774;BME280;3931;42.260;23.116;2022-08-19T09:13:58;95257.41;;;38.33;36.73
7774;BME280;3931;42.260;23.116;2022-08-19T09:16:28;95242.31;;;38.12;36.56
7774;BME280;3931;42.260;23.116;2022-08-19T09:19:02;95245.91;;;38.82;36.30
7774;BME280;3931;42.260;23.116;2022-08-19T09:21:29;95246.28;;;38.64;35.96
7774;BME280;3931;42.260;23.116;2022-08-19T09:23:55;95238.25;;;39.11;35.49
7774;BME280;3931;42.260;23.116;2022-08-19T09:26:23;95239.28;;;39.16;35.75
7774;BME280;3931;42.260;23.116;2022-08-19T09:28:51;95233.31;;;39.51;35.56
7774;BME280;3931;42.260;23.116;2022-08-19T09:31:19;95229.84;;;40.04;34.97
7774;BME280;3931;42.260;23.116;2022-08-19T09:33:47;95221.13;;;40.04;34.75
7774;BME280;3931;42.260;23.116;2022-08-19T09:36:15;95224.00;;;39.91;34.80
7774;BME280;3931;42.260;23.116;2022-08-19T09:38:41;95209.66;;;39.17;35.35
7774;BME280;3931;42.260;23.116;2022-08-19T09:41:09;95210.44;;;39.06;35.35
7774;BME280;3931;42.260;23.116;2022-08-19T09:43:39;95207.25;;;39.89;35.02
7774;BME280;3931;42.260;23.116;2022-08-19T09:46:07;95208.38;;;40.23;34.57
7774;BME280;3931;42.260;23.116;2022-08-19T09:48:34;95202.78;;;40.14;34.43
7774;BME280;3931;42.260;23.116;2022-08-19T09:51:06;95193.59;;;39.53;35.46
7774;BME280;3931;42.260;23.116;2022-08-19T09:53:33;95199.56;;;40.08;34.67
7774;BME280;3931;42.260;23.116;2022-08-19T09:55:59;95184.41;;;40.91;33.16
7774;BME280;3931;42.260;23.116;2022-08-19T09:58:25;95183.59;;;41.04;33.14
7774;BME280;3931;42.260;23.116;2022-08-19T10:00:53;95190.09;;;41.31;32.92
7774;BME280;3931;42.260;23.116;2022-08-19T10:03:19;95185.47;;;41.26;32.67
7774;BME280;3931;42.260;23.116;2022-08-19T10:05:45;95184.44;;;41.06;32.75
7774;BME280;3931;42.260;23.116;2022-08-19T10:08:17;95181.16;;;41.27;32.85
7774;BME280;3931;42.260;23.116;2022-08-19T10:10:44;95172.41;;;41.57;32.75
7774;BME280;3931;42.260;23.116;2022-08-19T10:13:11;95164.69;;;41.32;32.78
7774;BME280;3931;42.260;23.116;2022-08-19T10:15:37;95167.03;;;41.35;32.28
7774;BME280;3931;42.260;23.116;2022-08-19T10:18:04;95160.75;;;41.41;32.35
7774;BME280;3931;42.260;23.116;2022-08-19T10:20:30;95162.28;;;41.58;32.52
7774;BME280;3931;42.260;23.116;2022-08-19T10:22:57;95160.13;;;41.58;32.79
7774;BME280;3931;42.260;23.116;2022-08-19T10:25:25;95156.75;;;41.19;32.69
7774;BME280;3931;42.260;23.116;2022-08-19T10:27:52;95160.41;;;41.49;32.51
7774;BME280;3931;42.260;23.116;2022-08-19T10:30:19;95151.09;;;41.36;32.33
7774;BME280;3931;42.260;23.116;2022-08-19T10:32:45;95162.13;;;40.95;32.44
7774;BME280;3931;42.260;23.116;2022-08-19T10:35:13;95148.56;;;41.74;32.26
7774;BME280;3931;42.260;23.116;2022-08-19T10:37:39;95145.75;;;41.76;31.89
7774;BME280;3931;42.260;23.116;2022-08-19T10:40:07;95140.09;;;41.80;31.40
7774;BME280;3931;42.260;23.116;2022-08-19T10:42:36;95135.91;;;41.67;31.68
7774;BME280;3931;42.260;23.116;2022-08-19T10:45:04;95137.84;;;41.94;31.51
7774;BME280;3931;42.260;23.116;2022-08-19T10:47:31;95135.47;;;42.22;31.32
7774;BME280;3931;42.260;23.116;2022-08-19T10:49:57;95135.53;;;42.72;30.66
7774;BME280;3931;42.260;23.116;2022-08-19T10:52:44;95130.69;;;42.61;30.96
7774;BME280;3931;42.260;23.116;2022-08-19T10:55:11;95135.03;;;42.60;31.08
7774;BME280;3931;42.260;23.116;2022-08-19T10:57:56;95134.47;;;41.99;30.79
7774;BME280;3931;42.260;23.116;2022-08-19T11:00:23;95127.41;;;41.42;30.66
7774;BME280;3931;42.260;23.116;2022-08-19T11:02:50;95132.13;;;41.20;30.66
7774;BME280;3931;42.260;23.116;2022-08-19T11:05:17;95127.88;;;41.99;30.48
7774;BME280;3931;42.260;23.116;2022-08-19T11:07:44;95128.69;;;42.48;29.81
7774;BME280;3931;42.260;23.116;2022-08-19T11:10:13;95125.53;;;42.27;28.73
7774;BME280;3931;42.260;23.116;2022-08-19T11:12:40;95112.53;;;42.45;27.97
7774;BME280;3931;42.260;23.116;2022-08-19T11:15:09;95117.06;;;42.33;28.19
7774;BME280;3931;42.260;23.116;2022-08-19T11:17:37;95117.78;;;41.84;29.33
7774;BME280;3931;42.260;23.116;2022-08-19T11:20:06;95112.09;;;42.35;29.56
7774;BME280;3931;42.260;23.116;2022-08-19T11:22:33;95115.06;;;42.53;28.97
7774;BME280;3931;42.260;23.116;2022-08-19T11:25:00;95114.28;;;42.03;30.01
7774;BME280;3931;42.260;23.116;2022-08-19T11:27:26;95111.31;;;41.86;29.76
7774;BME280;3931;42.260;23.116;2022-08-19T11:29:53;95106.81;;;42.14;29.01
7774;BME280;3931;42.260;23.116;2022-08-19T11:32:20;95108.50;;;42.37;28.92
7774;BME280;3931;42.260;23.116;2022-08-19T11:34:46;95104.50;;;42.28;28.42
7774;BME280;3931;42.260;23.116;2022-08-19T11:37:12;95100.03;;;42.25;29.37
7774;BME280;3931;42.260;23.116;2022-08-19T11:39:38;95097.44;;;42.33;28.95
7774;BME280;3931;42.260;23.116;2022-08-19T11:42:06;95090.94;;;43.01;29.03
7774;BME280;3931;42.260;23.116;2022-08-19T11:44:52;95089.84;;;43.28;27.88
7774;BME280;3931;42.260;23.116;2022-08-19T11:47:19;95088.09;;;43.58;27.77
7774;BME280;3931;42.260;23.116;2022-08-19T11:49:46;95078.59;;;42.85;28.28
7774;BME280;3931;42.260;23.116;2022-08-19T11:52:12;95086.63;;;43.22;28.18
7774;BME280;3931;42.260;23.116;2022-08-19T11:54:38;95070.56;;;44.35;27.13
7774;BME280;3931;42.260;23.116;2022-08-19T11:57:05;95072.28;;;44.02;27.44
7774;BME280;3931;42.260;23.116;2022-08-19T11:59:31;95078.56;;;42.67;28.96
7774;BME280;3931;42.260;23.116;2022-08-19T12:01:57;95066.25;;;42.51;28.24
7774;BME280;3931;42.260;23.116;2022-08-19T12:04:23;95066.53;;;42.42;28.82
7774;BME280;3931;42.260;23.116;2022-08-19T12:06:49;95066.69;;;42.46;27.97
7774;BME280;3931;42.260;23.116;2022-08-19T12:09:16;95057.97;;;42.97;27.44
7774;BME280;3931;42.260;23.116;2022-08-19T12:11:43;95059.13;;;42.54;27.44
7774;BME280;3931;42.260;23.116;2022-08-19T12:14:11;95052.97;;;43.17;28.21
7774;BME280;3931;42.260;23.116;2022-08-19T12:16:39;95052.88;;;42.62;28.19
7774;BME280;3931;42.260;23.116;2022-08-19T12:19:06;95048.47;;;42.78;28.37
7774;BME280;3931;42.260;23.116;2022-08-19T12:21:35;95043.22;;;42.93;28.23
7774;BME280;3931;42.260;23.116;2022-08-19T12:24:02;95040.06;;;42.87;27.73
7774;BME280;3931;42.260;23.116;2022-08-19T12:26:30;95039.94;;;43.20;28.42
7774;BME280;3931;42.260;23.116;2022-08-19T12:28:57;95036.53;;;43.63;28.05
7774;BME280;3931;42.260;23.116;2022-08-19T12:31:24;95030.22;;;43.13;28.88
7774;BME280;3931;42.260;23.116;2022-08-19T12:33:51;95025.66;;;43.08;28.29
7774;BME280;3931;42.260;23.116;2022-08-19T12:36:18;95024.09;;;43.42;27.83
7774;BME280;3931;42.260;23.116;2022-08-19T12:38:45;95028.09;;;44.51;27.32
7774;BME280;3931;42.260;23.116;2022-08-19T12:41:14;95029.44;;;43.48;27.63
7774;BME280;3931;42.260;23.116;2022-08-19T12:43:40;95019.47;;;43.55;27.16
7774;BME280;3931;42.260;23.116;2022-08-19T12:46:07;95014.00;;;43.08;27.60
7774;BME280;3931;42.260;23.116;2022-08-19T12:48:34;95006.34;;;42.46;28.83
7774;BME280;3931;42.260;23.116;2022-08-19T12:51:00;95008.03;;;43.04;27.68
7774;BME280;3931;42.260;23.116;2022-08-19T12:53:31;95015.06;;;42.46;28.93
7774;BME280;3931;42.260;23.116;2022-08-19T12:55:58;95009.44;;;43.03;27.60
7774;BME280;3931;42.260;23.116;2022-08-19T12:58:25;95006.19;;;43.50;27.95
7774;BME280;3931;42.260;23.116;2022-08-19T13:00:51;95001.84;;;42.26;28.97
7774;BME280;3931;42.260;23.116;2022-08-19T13:03:17;95019.16;;;44.26;26.79
7774;BME280;3931;42.260;23.116;2022-08-19T13:05:43;94997.59;;;43.54;27.41
7774;BME280;3931;42.260;23.116;2022-08-19T13:08:10;95003.84;;;44.47;27.38
7774;BME280;3931;42.260;23.116;2022-08-19T13:10:37;95001.25;;;43.94;27.88
7774;BME280;3931;42.260;23.116;2022-08-19T13:13:06;94993.94;;;42.28;28.14